sensor_id;sensor_type;location;lat;lon;timestamp;pressure;altitude;pressure_sealevel;temperature;humidity
71638;BME280;59485;43.542;-5.676;2023-03-20T00:26:41;102239.56;;;9.70;100.00
71638;BME280;59485;43.542;-5.676;2023-03-20T00:32:13;102241.56;;;9.68;100.00
71638;BME280;59485;43.542;-5.676;2023-03-20T00:34:54;102236.25;;;9.66;100.00
71638;BME280;59485;43.542;-5.676;2023-03-20T00:42:21;102232.84;;;9.55;100.00
71638;BME280;59485;43.542;-5.676;2023-03-20T00:45:14;102225.91;;;9.51;100.00
71638;BME280;59485;43.542;-5.676;2023-03-20T00:48:02;102219.31;;;9.34;100.00
71638;BME280;59485;43.542;-5.676;2023-03-20T00:50:46;102215.31;;;9.38;100.00
71638;BME280;59485;43.542;-5.676;2023-03-20T00:53:19;102214.59;;;9.36;100.00
71638;BME280;59485;43.542;-5.676;2023-03-20T00:56:01;102217.59;;;9.43;100.00
71638;BME280;59485;43.542;-5.676;2023-03-20T01:01:06;102222.78;;;9.46;100.00
71638;BME280;59485;43.542;-5.676;2023-03-20T01:03:31;102221.75;;;9.47;100.00
71638;BME280;59485;43.542;-5.676;2023-03-20T01:05:59;102216.16;;;9.38;100.00
71638;BME280;59485;43.542;-5.676;2023-03-20T01:08:45;102221.19;;;9.33;100.00
71638;BME280;59485;43.542;-5.676;2023-03-20T01:11:21;102210.13;;;9.35;100.00
71638;BME280;59485;43.542;-5.676;2023-03-20T01:14:04;102204.53;;;9.27;100.00
71638;BME280;59485;43.542;-5.676;2023-03-20T01:19:36;102200.31;;;9.32;100.00
71638;BME280;59485;43.542;-5.676;2023-03-20T01:22:11;102199.47;;;9.22;100.00
71638;BME280;59485;43.542;-5.676;2023-03-20T02:03:05;102152.41;;;9.19;100.00
71638;BME280;59485;43.542;-5.676;2023-03-20T02:13:21;102149.53;;;9.20;100.00
71638;BME280;59485;43.542;-5.676;2023-03-20T02:45:28;102102.94;;;9.39;100.00
71638;BME280;59485;43.542;-5.676;2023-03-20T02:56:45;102088.69;;;9.36;100.00
71638;BME280;59485;43.542;-5.676;2023-03-20T02:59:29;102081.22;;;9.38;100.00
71638;BME280;59485;43.542;-5.676;2023-03-20T03:02:12;102084.38;;;9.33;100.00
71638;BME280;59485;43.542;-5.676;2023-03-20T03:04:47;102082.66;;;9.32;100.00
71638;BME280;59485;43.542;-5.676;2023-03-20T03:07:19;102080.25;;;9.29;100.00
71638;BME280;59485;43.542;-5.676;2023-03-20T03:09:51;102079.94;;;9.23;100.00
71638;BME280;59485;43.542;-5.676;2023-03-20T03:12:25;102075.66;;;9.20;100.00
71638;BME280;59485;43.542;-5.676;2023-03-20T03:15:06;102071.34;;;9.18;100.00
71638;BME280;59485;43.542;-5.676;2023-03-20T03:17:47;102068.16;;;9.22;100.00
71638;BME280;59485;43.542;-5.676;2023-03-20T03:20:21;102059.25;;;9.20;100.00
71638;BME280;59485;43.542;-5.676;2023-03-20T03:22:48;102059.81;;;9.14;100.00
71638;BME280;59485;43.542;-5.676;2023-03-20T03:25:15;102050.94;;;9.12;100.00
71638;BME280;59485;43.542;-5.676;2023-03-20T03:27:47;102054.56;;;9.03;100.00
71638;BME280;59485;43.542;-5.676;2023-03-20T03:30:27;102054.09;;;9.08;100.00
71638;BME280;59485;43.542;-5.676;2023-03-20T03:49:25;102057.16;;;8.95;100.00
71638;BME280;59485;43.542;-5.676;2023-03-20T03:52:21;102048.53;;;8.90;100.00
71638;BME280;59485;43.542;-5.676;2023-03-20T03:54:51;102046.69;;;8.90;100.00
71638;BME280;59485;43.542;-5.676;2023-03-20T03:57:33;102042.69;;;8.85;100.00
71638;BME280;59485;43.542;-5.676;2023-03-20T04:00:12;102054.50;;;8.76;100.00
71638;BME280;59485;43.542;-5.676;2023-03-20T04:10:41;102038.91;;;8.86;100.00
71638;BME280;59485;43.542;-5.676;2023-03-20T04:13:19;102042.34;;;8.88;100.00
71638;BME280;59485;43.542;-5.676;2023-03-20T04:15:54;102043.06;;;8.90;100.00
71638;BME280;59485;43.542;-5.676;2023-03-20T04:18:26;102042.66;;;8.94;100.00
71638;BME280;59485;43.542;-5.676;2023-03-20T04:23:27;102044.63;;;9.02;100.00
71638;BME280;59485;43.542;-5.676;2023-03-20T04:25:52;102035.84;;;8.98;100.00
71638;BME280;59485;43.542;-5.676;2023-03-20T04:28:26;102036.09;;;9.05;100.00
71638;BME280;59485;43.542;-5.676;2023-03-20T04:31:00;102038.69;;;9.07;100.00
71638;BME280;59485;43.542;-5.676;2023-03-20T04:36:14;102043.66;;;8.93;100.00
71638;BME280;59485;43.542;-5.676;2023-03-20T04:38:40;102048.69;;;8.88;100.00
71638;BME280;59485;43.542;-5.676;2023-03-20T04:46:11;102046.81;;;8.89;100.00
71638;BME280;59485;43.542;-5.676;2023-03-20T04:48:43;102047.25;;;8.94;100.00
71638;BME280;59485;43.542;-5.676;2023-03-20T04:53:53;102035.00;;;8.98;100.00
71638;BME280;59485;43.542;-5.676;2023-03-20T04:56:30;102040.16;;;9.01;100.00
71638;BME280;59485;43.542;-5.676;2023-03-20T04:59:05;102044.91;;;8.99;100.00
71638;BME280;59485;43.542;-5.676;2023-03-20T05:01:43;102031.13;;;8.91;100.00
71638;BME280;59485;43.542;-5.676;2023-03-20T05:09:27;102031.25;;;8.99;100.00
71638;BME280;59485;43.542;-5.676;2023-03-20T05:11:53;102035.28;;;8.95;100.00
71638;BME280;59485;43.542;-5.676;2023-03-20T05:14:18;102040.75;;;8.95;100.00
71638;BME280;59485;43.542;-5.676;2023-03-20T05:16:44;102040.63;;;8.87;100.00
71638;BME280;59485;43.542;-5.676;2023-03-20T05:19:10;102033.75;;;8.83;100.00
71638;BME280;59485;43.542;-5.676;2023-03-20T05:29:58;102035.78;;;8.71;100.00
71638;BME280;59485;43.542;-5.676;2023-03-20T05:32:23;102048.03;;;8.67;100.00
71638;BME280;59485;43.542;-5.676;2023-03-20T05:34:49;102049.75;;;8.68;100.00
71638;BME280;59485;43.542;-5.676;2023-03-20T05:37:30;102041.84;;;8.75;100.00
71638;BME280;59485;43.542;-5.676;2023-03-20T05:42:29;102042.97;;;8.72;100.00
71638;BME280;59485;43.542;-5.676;2023-03-20T05:44:54;102048.91;;;8.68;100.00
71638;BME280;59485;43.542;-5.676;2023-03-20T05:47:20;102045.00;;;8.70;100.00
71638;BME280;59485;43.542;-5.676;2023-03-20T05:49:45;102035.91;;;8.79;100.00
71638;BME280;59485;43.542;-5.676;2023-03-20T05:52:11;102040.50;;;8.79;100.00
71638;BME280;59485;43.542;-5.676;2023-03-20T05:54:39;102037.22;;;8.75;100.00
71638;BME280;59485;43.542;-5.676;2023-03-20T05:59:38;102029.78;;;8.68;100.00
71638;BME280;59485;43.542;-5.676;2023-03-20T06:04:55;102029.78;;;8.68;100.00
71638;BME280;59485;43.542;-5.676;2023-03-20T06:09:49;102027.19;;;8.56;100.00
71638;BME280;59485;43.542;-5.676;2023-03-20T06:12:15;102027.19;;;8.56;100.00
71638;BME280;59485;43.542;-5.676;2023-03-20T06:14:43;102028.59;;;8.60;100.00
71638;BME280;59485;43.542;-5.676;2023-03-20T06:17:08;102026.31;;;8.65;100.00
71638;BME280;59485;43.542;-5.676;2023-03-20T06:19:34;102028.59;;;8.60;100.00
71638;BME280;59485;43.542;-5.676;2023-03-20T06:22:01;102033.22;;;8.60;100.00
71638;BME280;59485;43.542;-5.676;2023-03-20T06:24:26;102033.66;;;8.55;100.00
71638;BME280;59485;43.542;-5.676;2023-03-20T06:26:52;102032.41;;;8.50;100.00
71638;BME280;59485;43.542;-5.676;2023-03-20T06:29:17;102031.53;;;8.49;100.00
71638;BME280;59485;43.542;-5.676;2023-03-20T06:31:46;102028.94;;;8.48;100.00
71638;BME280;59485;43.542;-5.676;2023-03-20T06:34:12;102028.63;;;8.41;100.00
71638;BME280;59485;43.542;-5.676;2023-03-20T06:36:37;102031.38;;;8.41;100.00
71638;BME280;59485;43.542;-5.676;2023-03-20T06:39:03;102041.88;;;8.36;100.00
71638;BME280;59485;43.542;-5.676;2023-03-20T06:41:28;102039.44;;;8.33;100.00
71638;BME280;59485;43.542;-5.676;2023-03-20T06:43:54;102034.38;;;8.28;100.00
71638;BME280;59485;43.542;-5.676;2023-03-20T06:46:20;102037.25;;;8.27;100.00
71638;BME280;59485;43.542;-5.676;2023-03-20T06:48:46;102040.56;;;8.21;100.00
71638;BME280;59485;43.542;-5.676;2023-03-20T06:51:12;102042.56;;;8.19;100.00
71638;BME280;59485;43.542;-5.676;2023-03-20T06:53:38;102044.72;;;8.25;100.00
71638;BME280;59485;43.542;-5.676;2023-03-20T06:56:07;102039.97;;;8.27;100.00
71638;BME280;59485;43.542;-5.676;2023-03-20T06:58:33;102040.16;;;8.35;100.00
71638;BME280;59485;43.542;-5.676;2023-03-20T07:00:58;102041.88;;;8.36;100.00
71638;BME280;59485;43.542;-5.676;2023-03-20T07:03:24;102040.16;;;8.45;100.00
71638;BME280;59485;43.542;-5.676;2023-03-20T07:05:49;102044.59;;;8.55;100.00
71638;BME280;59485;43.542;-5.676;2023-03-20T07:08:15;102046.31;;;8.56;100.00
71638;BME280;59485;43.542;-5.676;2023-03-20T07:10:40;102039.13;;;8.65;100.00
71638;BME280;59485;43.542;-5.676;2023-03-20T07:13:06;102030.91;;;8.75;100.00
71638;BME280;59485;43.542;-5.676;2023-03-20T07:15:31;102030.00;;;8.84;100.00
71638;BME280;59485;43.542;-5.676;2023-03-20T07:17:57;102030.88;;;8.84;100.00
71638;BME280;59485;43.542;-5.676;2023-03-20T07:20:23;102028.13;;;8.84;100.00
71638;BME280;59485;43.542;-5.676;2023-03-20T07:22:48;102034.16;;;8.88;100.00
71638;BME280;59485;43.542;-5.676;2023-03-20T07:25:14;102029.13;;;8.93;100.00
71638;BME280;59485;43.542;-5.676;2023-03-20T07:27:42;102033.97;;;8.99;100.00
71638;BME280;59485;43.542;-5.676;2023-03-20T07:30:14;102029.78;;;9.04;100.00
71638;BME280;59485;43.542;-5.676;2023-03-20T07:32:43;102028.88;;;9.14;100.00
71638;BME280;59485;43.542;-5.676;2023-03-20T07:35:09;102030.59;;;9.15;100.00
71638;BME280;59485;43.542;-5.676;2023-03-20T07:37:35;102024.38;;;9.22;100.00
71638;BME280;59485;43.542;-5.676;2023-03-20T07:40:01;102016.44;;;9.29;100.00
71638;BME280;59485;43.542;-5.676;2023-03-20T07:42:26;102011.22;;;9.35;100.00
71638;BME280;59485;43.542;-5.676;2023-03-20T07:44:52;102010.59;;;9.41;100.00
71638;BME280;59485;43.542;-5.676;2023-03-20T07:47:17;102020.09;;;9.47;100.00
71638;BME280;59485;43.542;-5.676;2023-03-20T07:49:43;102014.72;;;9.55;100.00
71638;BME280;59485;43.542;-5.676;2023-03-20T07:52:08;102016.97;;;9.60;100.00
71638;BME280;59485;43.542;-5.676;2023-03-20T07:54:34;102014.94;;;9.62;100.00
71638;BME280;59485;43.542;-5.676;2023-03-20T07:57:00;102018.63;;;9.70;100.00
71638;BME280;59485;43.542;-5.676;2023-03-20T07:59:25;102028.97;;;9.76;100.00
71638;BME280;59485;43.542;-5.676;2023-03-20T08:01:51;102011.06;;;9.82;100.00
71638;BME280;59485;43.542;-5.676;2023-03-20T08:04:17;102020.53;;;9.88;100.00
71638;BME280;59485;43.542;-5.676;2023-03-20T08:06:44;102017.88;;;9.96;100.00
71638;BME280;59485;43.542;-5.676;2023-03-20T08:09:10;102014.53;;;10.02;100.00
71638;BME280;59485;43.542;-5.676;2023-03-20T08:11:35;102024.00;;;10.07;100.00
71638;BME280;59485;43.542;-5.676;2023-03-20T08:14:01;102017.47;;;10.18;100.00
71638;BME280;59485;43.542;-5.676;2023-03-20T08:16:26;102016.66;;;10.26;100.00
71638;BME280;59485;43.542;-5.676;2023-03-20T08:18:52;102019.63;;;10.32;100.00
71638;BME280;59485;43.542;-5.676;2023-03-20T08:21:27;102021.41;;;10.41;100.00
71638;BME280;59485;43.542;-5.676;2023-03-20T08:23:53;102021.31;;;10.51;100.00
71638;BME280;59485;43.542;-5.676;2023-03-20T08:26:19;102019.66;;;10.58;100.00
71638;BME280;59485;43.542;-5.676;2023-03-20T08:28:45;102016.09;;;10.66;100.00
71638;BME280;59485;43.542;-5.676;2023-03-20T08:31:10;102024.94;;;10.77;100.00
71638;BME280;59485;43.542;-5.676;2023-03-20T08:33:36;102021.78;;;10.90;100.00
71638;BME280;59485;43.542;-5.676;2023-03-20T08:36:01;102028.34;;;10.97;100.00
71638;BME280;59485;43.542;-5.676;2023-03-20T08:38:27;102025.66;;;11.13;100.00
71638;BME280;59485;43.542;-5.676;2023-03-20T08:40:52;102019.91;;;11.24;100.00
71638;BME280;59485;43.542;-5.676;2023-03-20T08:43:19;102037.13;;;11.35;100.00
71638;BME280;59485;43.542;-5.676;2023-03-20T08:45:45;102033.53;;;11.42;100.00
71638;BME280;59485;43.542;-5.676;2023-03-20T08:48:11;102023.06;;;11.46;100.00
71638;BME280;59485;43.542;-5.676;2023-03-20T08:50:37;102031.38;;;11.54;100.00
71638;BME280;59485;43.542;-5.676;2023-03-20T08:53:04;102032.06;;;11.64;100.00
71638;BME280;59485;43.542;-5.676;2023-03-20T08:55:30;102031.66;;;11.85;100.00
71638;BME280;59485;43.542;-5.676;2023-03-20T08:57:56;102039.41;;;11.89;100.00
71638;BME280;59485;43.542;-5.676;2023-03-20T09:00:22;102031.34;;;12.04;100.00
71638;BME280;59485;43.542;-5.676;2023-03-20T09:02:49;102029.63;;;12.11;100.00
71638;BME280;59485;43.542;-5.676;2023-03-20T09:05:15;102032.22;;;12.21;100.00
71638;BME280;59485;43.542;-5.676;2023-03-20T09:07:41;102028.63;;;12.28;100.00
71638;BME280;59485;43.542;-5.676;2023-03-20T09:10:07;102028.28;;;12.31;100.00
71638;BME280;59485;43.542;-5.676;2023-03-20T09:12:33;102037.06;;;12.43;100.00
71638;BME280;59485;43.542;-5.676;2023-03-20T09:14:58;102036.38;;;12.57;100.00
71638;BME280;59485;43.542;-5.676;2023-03-20T09:17:27;102032.41;;;12.60;100.00
71638;BME280;59485;43.542;-5.676;2023-03-20T09:19:52;102030.00;;;12.65;100.00
71638;BME280;59485;43.542;-5.676;2023-03-20T09:22:18;102025.88;;;12.77;100.00
71638;BME280;59485;43.542;-5.676;2023-03-20T09:24:45;102028.78;;;12.84;100.00
71638;BME280;59485;43.542;-5.676;2023-03-20T09:27:13;102023.41;;;12.90;100.00
71638;BME280;59485;43.542;-5.676;2023-03-20T09:29:42;102021.69;;;13.05;100.00
71638;BME280;59485;43.542;-5.676;2023-03-20T09:32:10;102028.19;;;13.12;100.00
71638;BME280;59485;43.542;-5.676;2023-03-20T09:34:36;102021.28;;;13.25;100.00
71638;BME280;59485;43.542;-5.676;2023-03-20T09:37:02;102016.41;;;13.43;100.00
71638;BME280;59485;43.542;-5.676;2023-03-20T09:39:28;102014.47;;;13.51;100.00
71638;BME280;59485;43.542;-5.676;2023-03-20T09:42:01;102013.59;;;13.59;100.00
71638;BME280;59485;43.542;-5.676;2023-03-20T09:55:22;102013.56;;;13.90;100.00
71638;BME280;59485;43.542;-5.676;2023-03-20T09:57:52;102021.22;;;13.80;100.00
71638;BME280;59485;43.542;-5.676;2023-03-20T10:00:21;102018.63;;;13.78;100.00
71638;BME280;59485;43.542;-5.676;2023-03-20T10:05:23;102024.53;;;13.75;100.00
71638;BME280;59485;43.542;-5.676;2023-03-20T10:07:49;102022.63;;;13.76;100.00
71638;BME280;59485;43.542;-5.676;2023-03-20T10:10:16;102018.50;;;13.72;100.00
71638;BME280;59485;43.542;-5.676;2023-03-20T10:12:56;102028.72;;;13.63;100.00
71638;BME280;59485;43.542;-5.676;2023-03-20T10:15:39;102030.22;;;13.74;100.00
71638;BME280;59485;43.542;-5.676;2023-03-20T10:18:25;102023.50;;;13.76;100.00
71638;BME280;59485;43.542;-5.676;2023-03-20T10:21:38;102021.94;;;13.74;100.00
71638;BME280;59485;43.542;-5.676;2023-03-20T10:26:21;102030.03;;;13.75;100.00
71638;BME280;59485;43.542;-5.676;2023-03-20T10:28:58;102029.34;;;13.73;100.00
71638;BME280;59485;43.542;-5.676;2023-03-20T10:42:12;102023.88;;;13.65;100.00
71638;BME280;59485;43.542;-5.676;2023-03-20T10:44:43;102026.28;;;13.68;100.00
71638;BME280;59485;43.542;-5.676;2023-03-20T10:47:15;102030.72;;;13.77;100.00
71638;BME280;59485;43.542;-5.676;2023-03-20T10:49:50;102032.28;;;13.72;100.00
71638;BME280;59485;43.542;-5.676;2023-03-20T10:52:21;102027.38;;;13.51;100.00
71638;BME280;59485;43.542;-5.676;2023-03-20T10:54:56;102030.13;;;13.51;100.00
71638;BME280;59485;43.542;-5.676;2023-03-20T10:57:24;102028.03;;;13.61;100.00
71638;BME280;59485;43.542;-5.676;2023-03-20T10:59:53;102021.00;;;13.59;100.00
71638;BME280;59485;43.542;-5.676;2023-03-20T11:02:23;102025.47;;;13.60;100.00
71638;BME280;59485;43.542;-5.676;2023-03-20T11:04:49;102030.66;;;13.55;100.00
71638;BME280;59485;43.542;-5.676;2023-03-20T11:07:31;102036.06;;;13.71;100.00
71638;BME280;59485;43.542;-5.676;2023-03-20T11:12:44;102022.00;;;13.66;100.00
71638;BME280;59485;43.542;-5.676;2023-03-20T11:18:11;102036.25;;;13.69;100.00
71638;BME280;59485;43.542;-5.676;2023-03-20T11:23:15;102007.31;;;13.73;100.00
71638;BME280;59485;43.542;-5.676;2023-03-20T11:25:49;102006.44;;;13.73;100.00
71638;BME280;59485;43.542;-5.676;2023-03-20T11:31:05;102002.31;;;14.00;100.00
71638;BME280;59485;43.542;-5.676;2023-03-20T11:33:39;101992.09;;;14.08;100.00
71638;BME280;59485;43.542;-5.676;2023-03-20T11:36:27;101984.44;;;14.18;100.00
71638;BME280;59485;43.542;-5.676;2023-03-20T11:39:22;101982.59;;;14.11;100.00
71638;BME280;59485;43.542;-5.676;2023-03-20T11:41:47;101972.91;;;14.15;100.00
71638;BME280;59485;43.542;-5.676;2023-03-20T11:47:11;101965.22;;;14.25;100.00
71638;BME280;59485;43.542;-5.676;2023-03-20T11:49:49;101958.31;;;14.29;100.00
71638;BME280;59485;43.542;-5.676;2023-03-20T11:52:24;101947.22;;;14.37;100.00
71638;BME280;59485;43.542;-5.676;2023-03-20T11:54:55;101946.63;;;14.64;100.00
71638;BME280;59485;43.542;-5.676;2023-03-20T11:59:54;101924.06;;;14.90;100.00
71638;BME280;59485;43.542;-5.676;2023-03-20T12:02:22;101919.97;;;14.86;100.00
71638;BME280;59485;43.542;-5.676;2023-03-20T12:04:50;101910.09;;;14.92;100.00
71638;BME280;59485;43.542;-5.676;2023-03-20T12:07:23;101913.88;;;15.06;100.00
71638;BME280;59485;43.542;-5.676;2023-03-20T12:09:53;101904.63;;;15.13;100.00
71638;BME280;59485;43.542;-5.676;2023-03-20T12:12:41;101904.31;;;15.23;100.00
71638;BME280;59485;43.542;-5.676;2023-03-20T12:15:26;101901.00;;;15.49;100.00
71638;BME280;59485;43.542;-5.676;2023-03-20T12:21:15;101915.88;;;15.12;100.00
71638;BME280;59485;43.542;-5.676;2023-03-20T12:24:05;101907.31;;;14.92;100.00
71638;BME280;59485;43.542;-5.676;2023-03-20T12:34:48;101896.44;;;15.20;100.00
71638;BME280;59485;43.542;-5.676;2023-03-20T12:37:14;101891.19;;;15.25;100.00
71638;BME280;59485;43.542;-5.676;2023-03-20T12:39:56;101884.69;;;15.32;100.00
71638;BME280;59485;43.542;-5.676;2023-03-20T12:42:36;101878.84;;;15.42;100.00
71638;BME280;59485;43.542;-5.676;2023-03-20T12:45:11;101867.59;;;15.44;100.00
71638;BME280;59485;43.542;-5.676;2023-03-20T12:53:27;101851.88;;;15.44;100.00
71638;BME280;59485;43.542;-5.676;2023-03-20T12:56:21;101847.28;;;15.51;100.00
71638;BME280;59485;43.542;-5.676;2023-03-20T13:17:59;101815.59;;;15.68;100.00
71638;BME280;59485;43.542;-5.676;2023-03-20T13:20:32;101809.28;;;15.74;100.00
71638;BME280;59485;43.542;-5.676;2023-03-20T13:29:10;101804.91;;;15.87;100.00
71638;BME280;59485;43.542;-5.676;2023-03-20T13:32:30;101798.22;;;15.74;100.00
71638;BME280;59485;43.542;-5.676;2023-03-20T13:37:36;101776.53;;;15.78;100.00
71638;BME280;59485;43.542;-5.676;2023-03-20T13:40:15;101780.88;;;15.87;100.00
71638;BME280;59485;43.542;-5.676;2023-03-20T13:43:06;101785.50;;;15.80;100.00
71638;BME280;59485;43.542;-5.676;2023-03-20T13:45:40;101773.38;;;15.81;100.00
71638;BME280;59485;43.542;-5.676;2023-03-20T13:56:13;101767.50;;;15.91;100.00
71638;BME280;59485;43.542;-5.676;2023-03-20T14:01:15;101780.91;;;15.94;100.00
71638;BME280;59485;43.542;-5.676;2023-03-20T14:03:44;101765.09;;;16.09;100.00
71638;BME280;59485;43.542;-5.676;2023-03-20T14:08:52;101770.50;;;16.24;100.00
71638;BME280;59485;43.542;-5.676;2023-03-20T14:13:54;101765.16;;;16.22;100.00
71638;BME280;59485;43.542;-5.676;2023-03-20T14:16:21;101765.66;;;16.32;100.00
71638;BME280;59485;43.542;-5.676;2023-03-20T14:18:54;101759.81;;;16.21;100.00
71638;BME280;59485;43.542;-5.676;2023-03-20T14:21:28;101764.16;;;16.02;100.00
71638;BME280;59485;43.542;-5.676;2023-03-20T14:24:01;101760.19;;;16.11;100.00
71638;BME280;59485;43.542;-5.676;2023-03-20T14:26:37;101759.03;;;16.27;100.00
71638;BME280;59485;43.542;-5.676;2023-03-20T14:31:35;101759.88;;;16.27;100.00
71638;BME280;59485;43.542;-5.676;2023-03-20T14:36:58;101754.34;;;16.27;100.00
71638;BME280;59485;43.542;-5.676;2023-03-20T14:47:37;101738.25;;;16.44;100.00
71638;BME280;59485;43.542;-5.676;2023-03-20T14:50:25;101748.91;;;16.47;100.00
71638;BME280;59485;43.542;-5.676;2023-03-20T14:55:33;101744.22;;;16.47;100.00
71638;BME280;59485;43.542;-5.676;2023-03-20T14:58:50;101761.00;;;16.39;100.00
71638;BME280;59485;43.542;-5.676;2023-03-20T15:04:01;101753.56;;;16.40;100.00
71638;BME280;59485;43.542;-5.676;2023-03-20T15:06:31;101760.41;;;16.44;100.00
71638;BME280;59485;43.542;-5.676;2023-03-20T15:09:15;101763.81;;;16.46;100.00
71638;BME280;59485;43.542;-5.676;2023-03-20T15:11:42;101759.53;;;16.43;100.00
71638;BME280;59485;43.542;-5.676;2023-03-20T15:14:09;101762.81;;;16.60;100.00
71638;BME280;59485;43.542;-5.676;2023-03-20T15:16:36;101761.81;;;16.68;100.00
71638;BME280;59485;43.542;-5.676;2023-03-20T15:19:16;101754.38;;;16.75;100.00
71638;BME280;59485;43.542;-5.676;2023-03-20T15:21:44;101749.97;;;16.94;100.00
71638;BME280;59485;43.542;-5.676;2023-03-20T15:24:27;101740.00;;;17.06;100.00
71638;BME280;59485;43.542;-5.676;2023-03-20T15:26:56;101736.03;;;17.35;100.00
71638;BME280;59485;43.542;-5.676;2023-03-20T15:29:22;101725.34;;;17.58;100.00
71638;BME280;59485;43.542;-5.676;2023-03-20T15:31:57;101724.69;;;18.15;100.00
71638;BME280;59485;43.542;-5.676;2023-03-20T15:34:26;101716.13;;;18.81;100.00
71638;BME280;59485;43.542;-5.676;2023-03-20T15:36:57;101713.53;;;19.56;100.00
71638;BME280;59485;43.542;-5.676;2023-03-20T15:39:27;101703.44;;;19.79;100.00
71638;BME280;59485;43.542;-5.676;2023-03-20T15:41:58;101701.81;;;20.33;100.00
71638;BME280;59485;43.542;-5.676;2023-03-20T15:44:33;101694.25;;;20.88;100.00
71638;BME280;59485;43.542;-5.676;2023-03-20T15:49:41;101683.34;;;20.87;100.00
71638;BME280;59485;43.542;-5.676;2023-03-20T15:52:28;101681.50;;;21.11;100.00
71638;BME280;59485;43.542;-5.676;2023-03-20T15:54:56;101688.41;;;21.50;100.00
71638;BME280;59485;43.542;-5.676;2023-03-20T15:57:30;101681.75;;;21.74;100.00
71638;BME280;59485;43.542;-5.676;2023-03-20T15:59:58;101683.56;;;21.80;100.00
71638;BME280;59485;43.542;-5.676;2023-03-20T16:02:25;101684.63;;;21.44;100.00
71638;BME280;59485;43.542;-5.676;2023-03-20T16:04:52;101693.22;;;20.71;100.00
71638;BME280;59485;43.542;-5.676;2023-03-20T16:07:30;101693.28;;;20.83;100.00
71638;BME280;59485;43.542;-5.676;2023-03-20T16:09:57;101683.59;;;20.67;100.00
71638;BME280;59485;43.542;-5.676;2023-03-20T16:12:23;101688.00;;;20.93;100.00
71638;BME280;59485;43.542;-5.676;2023-03-20T16:14:51;101698.84;;;20.83;100.00
71638;BME280;59485;43.542;-5.676;2023-03-20T16:17:18;101699.50;;;20.96;100.00
71638;BME280;59485;43.542;-5.676;2023-03-20T16:19:45;101700.28;;;20.85;100.00
71638;BME280;59485;43.542;-5.676;2023-03-20T16:24:47;101706.63;;;20.44;100.00
71638;BME280;59485;43.542;-5.676;2023-03-20T16:27:21;101719.38;;;20.34;100.00
71638;BME280;59485;43.542;-5.676;2023-03-20T16:29:50;101720.47;;;20.51;100.00
71638;BME280;59485;43.542;-5.676;2023-03-20T16:35:06;101724.72;;;20.72;100.00
71638;BME280;59485;43.542;-5.676;2023-03-20T16:37:42;101715.44;;;20.59;100.00
71638;BME280;59485;43.542;-5.676;2023-03-20T16:42:53;101710.88;;;20.65;100.00
71638;BME280;59485;43.542;-5.676;2023-03-20T16:45:29;101721.94;;;20.72;100.00
71638;BME280;59485;43.542;-5.676;2023-03-20T16:50:43;101726.41;;;19.75;100.00
71638;BME280;59485;43.542;-5.676;2023-03-20T16:53:17;101718.81;;;20.07;100.00
71638;BME280;59485;43.542;-5.676;2023-03-20T16:55:48;101714.00;;;20.14;100.00
71638;BME280;59485;43.542;-5.676;2023-03-20T16:58:21;101720.50;;;20.08;100.00
71638;BME280;59485;43.542;-5.676;2023-03-20T17:00:56;101716.13;;;19.75;100.00
71638;BME280;59485;43.542;-5.676;2023-03-20T17:03:28;101732.31;;;19.29;100.00
71638;BME280;59485;43.542;-5.676;2023-03-20T17:11:38;101726.91;;;19.65;100.00
71638;BME280;59485;43.542;-5.676;2023-03-20T17:14:04;101726.28;;;19.63;100.00
71638;BME280;59485;43.542;-5.676;2023-03-20T17:16:30;101735.25;;;19.65;100.00
71638;BME280;59485;43.542;-5.676;2023-03-20T17:19:05;101743.16;;;19.68;100.00
71638;BME280;59485;43.542;-5.676;2023-03-20T17:21:32;101739.69;;;19.48;100.00
71638;BME280;59485;43.542;-5.676;2023-03-20T17:23:57;101755.56;;;19.34;100.00
71638;BME280;59485;43.542;-5.676;2023-03-20T17:26:23;101752.75;;;19.41;100.00
71638;BME280;59485;43.542;-5.676;2023-03-20T17:28:49;101767.72;;;19.08;100.00
71638;BME280;59485;43.542;-5.676;2023-03-20T17:31:16;101758.88;;;18.80;100.00
71638;BME280;59485;43.542;-5.676;2023-03-20T17:33:43;101769.50;;;18.96;100.00
71638;BME280;59485;43.542;-5.676;2023-03-20T17:36:22;101767.09;;;19.00;100.00
71638;BME280;59485;43.542;-5.676;2023-03-20T17:38:48;101764.03;;;18.70;100.00
71638;BME280;59485;43.542;-5.676;2023-03-20T17:41:16;101773.28;;;18.57;100.00
71638;BME280;59485;43.542;-5.676;2023-03-20T17:43:42;101778.66;;;18.32;100.00
71638;BME280;59485;43.542;-5.676;2023-03-20T17:46:16;101784.28;;;17.86;100.00
71638;BME280;59485;43.542;-5.676;2023-03-20T17:48:42;101802.75;;;17.33;100.00
71638;BME280;59485;43.542;-5.676;2023-03-20T17:51:08;101810.06;;;16.93;100.00
71638;BME280;59485;43.542;-5.676;2023-03-20T17:53:34;101815.06;;;16.63;100.00
71638;BME280;59485;43.542;-5.676;2023-03-20T17:56:00;101809.50;;;16.63;100.00
71638;BME280;59485;43.542;-5.676;2023-03-20T17:58:25;101817.03;;;16.48;100.00
71638;BME280;59485;43.542;-5.676;2023-03-20T18:00:53;101826.53;;;16.32;100.00
71638;BME280;59485;43.542;-5.676;2023-03-20T18:03:19;101827.00;;;16.08;100.00
71638;BME280;59485;43.542;-5.676;2023-03-20T18:05:47;101834.06;;;15.89;100.00
71638;BME280;59485;43.542;-5.676;2023-03-20T18:08:15;101842.50;;;15.60;100.00
71638;BME280;59485;43.542;-5.676;2023-03-20T18:10:42;101843.84;;;15.49;100.00
71638;BME280;59485;43.542;-5.676;2023-03-20T18:13:08;101843.31;;;15.39;100.00
71638;BME280;59485;43.542;-5.676;2023-03-20T18:15:34;101854.75;;;15.36;100.00
71638;BME280;59485;43.542;-5.676;2023-03-20T18:17:59;101859.94;;;15.24;100.00